createdAt,value
2023-08-25T00:02:27.588Z,22.88
2023-08-25T00:04:54.920Z,22.47
2023-08-25T00:07:21.877Z,22.35
2023-08-25T00:09:50.403Z,22.27
2023-08-25T00:12:17.346Z,22.28
2023-08-25T00:14:44.344Z,22.35
2023-08-25T00:17:11.215Z,22.27
2023-08-25T00:19:38.206Z,22.18
2023-08-25T00:22:05.365Z,22.28
2023-08-25T00:24:32.431Z,22.37
2023-08-25T00:27:01.913Z,22.31
2023-08-25T00:29:32.132Z,22.43
2023-08-25T00:32:08.201Z,22.39
2023-08-25T00:34:37.373Z,22.42
2023-08-25T00:37:07.235Z,22.41
2023-08-25T00:39:34.767Z,22.23
2023-08-25T00:42:03.605Z,22.21
2023-08-25T00:44:30.783Z,22.15
2023-08-25T00:47:00.995Z,22.22
2023-08-25T00:49:31.165Z,22.26
2023-08-25T00:51:59.758Z,22.31
2023-08-25T00:54:29.867Z,22.49
2023-08-25T00:57:00.549Z,22.35
2023-08-25T00:59:30.760Z,22.25
2023-08-25T01:01:57.988Z,22.24
2023-08-25T01:04:25.282Z,22.06
2023-08-25T01:06:54.988Z,22.09
2023-08-25T01:09:23.160Z,22.24
2023-08-25T01:12:05.784Z,22.24
2023-08-25T01:14:50.283Z,22.20
2023-08-25T01:17:37.194Z,22.32
2023-08-25T01:20:06.059Z,22.29
2023-08-25T01:22:49.883Z,22.38
2023-08-25T01:25:25.665Z,22.40
2023-08-25T01:27:55.413Z,22.31
2023-08-25T01:30:23.491Z,22.37
2023-08-25T01:32:50.817Z,22.35
2023-08-25T01:35:19.509Z,22.32
2023-08-25T01:37:59.018Z,22.31
2023-08-25T01:40:42.951Z,22.34
2023-08-25T01:43:13.973Z,22.47
2023-08-25T01:45:41.238Z,22.48
2023-08-25T01:48:11.443Z,22.48
2023-08-25T01:50:40.132Z,22.58
2023-08-25T01:53:10.314Z,22.48
2023-08-25T01:55:45.054Z,22.53
2023-08-25T01:58:15.137Z,22.51
2023-08-25T02:00:46.521Z,22.51
2023-08-25T02:03:13.590Z,22.53
2023-08-25T02:05:41.698Z,22.67
2023-08-25T02:08:08.710Z,22.75
2023-08-25T02:10:35.717Z,22.63
2023-08-25T02:13:04.619Z,22.68
2023-08-25T02:15:36.335Z,22.72
2023-08-25T02:18:04.894Z,22.60
2023-08-25T02:20:32.557Z,22.59
2023-08-25T02:23:02.377Z,22.53
2023-08-25T02:25:29.257Z,22.54
2023-08-25T02:27:56.298Z,22.74
2023-08-25T02:30:24.828Z,22.80
2023-08-25T02:32:53.101Z,22.89
2023-08-25T02:35:20.272Z,23.00
2023-08-25T02:37:58.854Z,22.87
2023-08-25T02:40:26.636Z,22.91
2023-08-25T02:42:54.967Z,22.98
2023-08-25T02:45:24.734Z,22.97
2023-08-25T02:47:54.499Z,23.15
2023-08-25T02:50:25.518Z,23.23
2023-08-25T02:52:52.901Z,23.28
2023-08-25T02:55:23.280Z,23.28
2023-08-25T02:57:52.100Z,23.12
2023-08-25T03:00:23.075Z,23.19
2023-08-25T03:02:52.736Z,23.24
2023-08-25T03:05:22.764Z,23.19
2023-08-25T03:07:53.323Z,23.15
2023-08-25T03:10:22.243Z,23.11
2023-08-25T03:12:50.838Z,23.14
2023-08-25T03:15:28.357Z,23.18
2023-08-25T03:17:59.535Z,22.88
2023-08-25T03:20:26.585Z,22.86
2023-08-25T03:22:53.576Z,22.88
2023-08-25T03:25:22.576Z,22.89
2023-08-25T03:27:50.828Z,22.79
2023-08-25T03:30:17.936Z,22.91
2023-08-25T03:32:49.729Z,22.92
2023-08-25T03:35:18.299Z,22.96
2023-08-25T03:37:45.247Z,22.88
2023-08-25T03:40:12.310Z,22.87
2023-08-25T03:42:39.370Z,22.85
2023-08-25T03:45:08.791Z,22.75
2023-08-25T03:47:36.194Z,22.57
2023-08-25T03:50:03.716Z,22.56
2023-08-25T03:52:32.121Z,22.54
2023-08-25T03:54:59.451Z,22.51
2023-08-25T03:57:27.201Z,22.45
2023-08-25T03:59:55.412Z,22.38
2023-08-25T04:02:25.470Z,22.38
2023-08-25T04:04:52.509Z,22.39
2023-08-25T04:07:21.085Z,22.36
2023-08-25T04:09:50.827Z,22.30
2023-08-25T04:12:17.822Z,22.44
2023-08-25T04:14:47.407Z,22.54
2023-08-25T04:17:16.676Z,22.62
2023-08-25T04:19:44.351Z,22.52
2023-08-25T04:22:14.395Z,22.31
2023-08-25T04:24:43.304Z,22.12
2023-08-25T04:27:14.513Z,22.19
2023-08-25T04:29:41.388Z,22.34
2023-08-25T04:32:16.126Z,22.41
2023-08-25T04:34:43.832Z,22.50
2023-08-25T04:37:11.041Z,22.57
2023-08-25T04:39:38.460Z,22.43
2023-08-25T04:42:07.592Z,22.54
2023-08-25T04:44:36.907Z,22.63
2023-08-25T04:47:05.384Z,22.69
2023-08-25T04:49:33.110Z,22.79
2023-08-25T04:52:00.805Z,22.85
2023-08-25T04:54:29.397Z,22.91
2023-08-25T04:56:57.133Z,22.82
2023-08-25T04:59:25.734Z,22.96
2023-08-25T05:01:54.739Z,23.09
2023-08-25T05:04:22.194Z,23.19
2023-08-25T05:06:54.179Z,23.30
2023-08-25T05:09:25.070Z,23.47
2023-08-25T05:11:56.046Z,23.84
2023-08-25T05:14:23.373Z,24.28
2023-08-25T05:16:50.672Z,24.74
2023-08-25T05:19:28.888Z,25.25
2023-08-25T05:22:01.263Z,25.77
2023-08-25T05:24:29.267Z,26.28
2023-08-25T05:26:58.078Z,26.75
2023-08-25T05:29:30.748Z,27.29
2023-08-25T05:32:01.589Z,27.80
2023-08-25T05:34:38.878Z,28.33
2023-08-25T05:37:08.364Z,28.69
2023-08-25T05:39:35.358Z,29.11
2023-08-25T05:42:02.426Z,29.01
2023-08-25T05:44:29.369Z,28.86
2023-08-25T05:46:56.640Z,28.84
2023-08-25T05:49:24.126Z,28.63
2023-08-25T05:51:52.477Z,28.46
2023-08-25T05:54:19.617Z,28.10
2023-08-25T05:56:46.589Z,27.78
2023-08-25T05:59:13.661Z,27.51
2023-08-25T06:01:42.037Z,27.23
2023-08-25T06:04:09.434Z,26.59
2023-08-25T06:06:36.640Z,25.80
2023-08-25T06:09:05.009Z,25.73
2023-08-25T06:11:32.885Z,25.33
2023-08-25T06:13:59.865Z,25.25
2023-08-25T06:16:27.519Z,25.22
2023-08-25T06:18:54.879Z,25.15
2023-08-25T06:21:22.842Z,25.00
2023-08-25T06:23:51.042Z,24.98
2023-08-25T06:26:22.340Z,24.83
2023-08-25T06:28:51.047Z,24.74
2023-08-25T06:31:18.600Z,24.69
2023-08-25T06:33:47.268Z,24.37
2023-08-25T06:36:14.933Z,24.06
2023-08-25T06:38:55.791Z,23.86
2023-08-25T06:41:26.043Z,23.54
2023-08-25T06:43:53.403Z,23.22
2023-08-25T06:46:20.513Z,22.94
2023-08-25T06:48:47.859Z,22.86
2023-08-25T06:51:14.994Z,22.86
2023-08-25T06:53:42.354Z,22.81
2023-08-25T06:56:09.441Z,22.78
2023-08-25T06:58:38.285Z,22.69
2023-08-25T07:01:05.436Z,22.68
2023-08-25T07:03:34.886Z,22.76
2023-08-25T07:06:02.802Z,22.79
2023-08-25T07:08:29.922Z,22.81
2023-08-25T07:10:59.681Z,22.78
2023-08-25T07:13:26.878Z,22.42
2023-08-25T07:15:55.651Z,21.86
2023-08-25T07:18:23.423Z,21.48
2023-08-25T07:20:50.786Z,21.25
2023-08-25T07:23:19.244Z,21.12
2023-08-25T07:25:46.354Z,20.93
2023-08-25T07:28:13.389Z,20.86
2023-08-25T07:30:40.318Z,20.88
2023-08-25T07:33:09.024Z,20.82
2023-08-25T07:35:37.187Z,20.66
2023-08-25T07:38:05.515Z,20.60
2023-08-25T07:40:32.725Z,20.51
2023-08-25T07:43:01.647Z,20.55
2023-08-25T07:45:31.488Z,20.55
2023-08-25T07:47:58.461Z,20.59
2023-08-25T07:50:31.200Z,20.47
2023-08-25T07:53:00.866Z,20.45
2023-08-25T07:55:29.820Z,20.39
2023-08-25T07:58:00.465Z,20.26
2023-08-25T08:00:27.905Z,20.18
2023-08-25T08:02:54.981Z,20.19
2023-08-25T08:05:22.009Z,20.24
2023-08-25T08:07:51.356Z,20.25
2023-08-25T08:10:19.660Z,20.18
2023-08-25T08:12:46.987Z,20.16
2023-08-25T08:15:14.502Z,20.15
2023-08-25T08:17:41.996Z,20.09
2023-08-25T08:20:12.686Z,20.29
2023-08-25T08:22:40.452Z,20.96
2023-08-25T08:25:09.861Z,20.51
2023-08-25T08:27:38.170Z,20.34
2023-08-25T08:30:07.653Z,20.22
2023-08-25T08:32:36.536Z,20.24
2023-08-25T08:35:04.649Z,20.20
2023-08-25T08:37:31.557Z,20.22
2023-08-25T08:39:58.747Z,20.17
2023-08-25T08:42:30.360Z,20.19
2023-08-25T08:45:02.792Z,20.16
2023-08-25T08:47:30.104Z,20.21
2023-08-25T08:50:00.304Z,20.19
2023-08-25T08:52:28.807Z,20.20
2023-08-25T08:54:56.856Z,20.10
2023-08-25T08:57:27.315Z,20.17
2023-08-25T08:59:54.591Z,20.28
2023-08-25T09:02:24.154Z,20.30
2023-08-25T09:04:54.125Z,20.32
2023-08-25T09:07:26.925Z,20.34
2023-08-25T09:09:54.163Z,20.42
2023-08-25T09:12:24.288Z,20.40
2023-08-25T09:14:53.047Z,20.47
2023-08-25T09:17:24.077Z,20.46
2023-08-25T09:19:52.444Z,20.54
2023-08-25T09:22:19.975Z,20.65
2023-08-25T09:24:48.826Z,20.72
2023-08-25T09:27:22.867Z,20.85
2023-08-25T09:30:00.924Z,21.10
2023-08-25T09:32:31.243Z,21.31
2023-08-25T09:35:13.650Z,21.01
2023-08-25T09:37:43.632Z,21.19
2023-08-25T09:40:15.375Z,21.22
2023-08-25T09:42:43.413Z,21.21
2023-08-25T09:45:13.297Z,21.34
2023-08-25T09:47:42.453Z,21.42
2023-08-25T09:50:17.502Z,21.47
2023-08-25T09:52:48.401Z,21.48
2023-08-25T09:55:20.334Z,21.54
2023-08-25T09:57:52.753Z,21.55
2023-08-25T10:00:25.339Z,21.62
2023-08-25T10:02:54.326Z,21.65
2023-08-25T10:05:22.172Z,21.89
2023-08-25T10:07:52.370Z,22.11
2023-08-25T10:10:24.247Z,22.24
2023-08-25T10:12:56.928Z,22.22
2023-08-25T10:15:33.846Z,21.91
2023-08-25T10:18:03.326Z,21.98
2023-08-25T10:20:31.215Z,22.22
2023-08-25T10:23:01.012Z,22.36
2023-08-25T10:25:32.368Z,22.42
2023-08-25T10:28:06.237Z,22.08
2023-08-25T10:30:35.524Z,22.00
2023-08-25T10:33:11.711Z,22.05
2023-08-25T10:35:41.661Z,22.10
2023-08-25T10:38:42.742Z,22.22
2023-08-25T10:41:19.290Z,22.24
2023-08-25T10:43:53.006Z,22.04
2023-08-25T10:46:35.591Z,22.04
2023-08-25T10:49:14.495Z,22.10
2023-08-25T10:51:43.190Z,22.07
2023-08-25T10:54:21.952Z,22.22
2023-08-25T10:56:51.577Z,22.41
2023-08-25T10:59:18.709Z,22.59
2023-08-25T11:01:58.472Z,22.88
2023-08-25T11:04:27.572Z,23.20
2023-08-25T11:06:56.839Z,23.57
2023-08-25T11:09:35.874Z,23.86
2023-08-25T11:12:06.759Z,23.99
2023-08-25T11:14:36.714Z,23.78
2023-08-25T11:17:10.562Z,23.88
2023-08-25T11:19:38.976Z,23.92
2023-08-25T11:22:11.387Z,24.02
2023-08-25T11:24:39.448Z,24.04
2023-08-25T11:27:07.533Z,24.11
2023-08-25T11:29:35.168Z,24.12
2023-08-25T11:32:03.222Z,23.90
2023-08-25T11:34:32.968Z,23.94
2023-08-25T11:37:00.520Z,23.83
2023-08-25T11:39:28.692Z,23.88
2023-08-25T11:41:58.062Z,23.86
2023-08-25T11:44:27.234Z,23.89
2023-08-25T11:46:58.996Z,23.95
2023-08-25T11:49:31.678Z,23.87
2023-08-25T11:52:00.754Z,23.77
2023-08-25T11:54:27.595Z,23.70
2023-08-25T11:56:54.985Z,23.79
2023-08-25T11:59:23.673Z,23.68
2023-08-25T12:01:54.076Z,23.91
2023-08-25T12:04:24.619Z,24.01
2023-08-25T12:06:54.069Z,24.04
2023-08-25T12:09:24.178Z,24.12
2023-08-25T12:11:52.121Z,24.12
2023-08-25T12:14:28.126Z,24.28
2023-08-25T12:17:07.686Z,24.15
2023-08-25T12:19:35.266Z,24.06
2023-08-25T12:22:04.489Z,23.91
2023-08-25T12:24:43.690Z,23.93
2023-08-25T12:27:10.954Z,23.86
2023-08-25T12:29:37.885Z,23.97
2023-08-25T12:32:08.268Z,23.98
2023-08-25T12:34:36.592Z,24.01
2023-08-25T12:37:05.892Z,24.07
2023-08-25T12:39:32.919Z,24.15
2023-08-25T12:41:59.910Z,24.33
2023-08-25T12:44:39.418Z,24.41
2023-08-25T12:47:15.712Z,24.50
2023-08-25T12:49:42.699Z,24.45
2023-08-25T12:52:11.209Z,24.48
2023-08-25T12:54:38.485Z,24.51
2023-08-25T12:57:06.888Z,24.54
2023-08-25T12:59:33.927Z,24.67
2023-08-25T13:02:00.861Z,24.75
2023-08-25T13:04:28.398Z,24.73
2023-08-25T13:06:56.522Z,24.74
2023-08-25T13:09:25.117Z,24.89
2023-08-25T13:11:52.083Z,25.21
2023-08-25T13:14:29.134Z,25.48
2023-08-25T13:16:58.321Z,25.66
2023-08-25T13:19:25.839Z,25.69
2023-08-25T13:21:54.332Z,25.54
2023-08-25T13:24:21.831Z,25.83
2023-08-25T13:26:51.809Z,26.04
2023-08-25T13:29:18.813Z,26.10
2023-08-25T13:31:45.728Z,26.02
2023-08-25T13:34:12.875Z,26.21
2023-08-25T13:36:40.405Z,26.42
2023-08-25T13:39:07.587Z,26.58
2023-08-25T13:41:34.717Z,26.85
2023-08-25T13:44:04.334Z,27.08
2023-08-25T13:46:31.707Z,27.13
2023-08-25T13:48:58.757Z,27.20
2023-08-25T13:51:25.847Z,27.40
2023-08-25T13:53:53.359Z,27.48
2023-08-25T13:56:22.138Z,27.58
2023-08-25T13:58:49.716Z,27.62
2023-08-25T14:01:18.126Z,27.79
2023-08-25T14:03:46.474Z,27.78
2023-08-25T14:06:14.951Z,27.68
2023-08-25T14:08:42.232Z,27.80
2023-08-25T14:11:10.409Z,27.81
2023-08-25T14:13:39.414Z,27.89
2023-08-25T14:16:07.439Z,27.95
2023-08-25T14:18:35.824Z,27.94
2023-08-25T14:21:05.226Z,27.95
2023-08-25T14:23:32.278Z,27.93
2023-08-25T14:25:59.504Z,27.96
2023-08-25T14:28:27.446Z,27.95
2023-08-25T14:30:56.453Z,28.08
2023-08-25T14:33:24.429Z,28.08
2023-08-25T14:35:53.140Z,28.04
2023-08-25T14:38:20.080Z,28.10
2023-08-25T14:40:47.655Z,28.18
2023-08-25T14:43:16.892Z,28.25
2023-08-25T14:45:44.328Z,28.08
2023-08-25T14:48:11.663Z,28.08
2023-08-25T14:50:39.040Z,28.07
2023-08-25T14:53:09.647Z,27.91
2023-08-25T14:55:39.582Z,27.46
2023-08-25T14:58:06.509Z,27.48
2023-08-25T15:00:33.457Z,27.67
2023-08-25T15:03:04.061Z,27.82
2023-08-25T15:05:31.565Z,27.63
2023-08-25T15:07:58.677Z,27.61
2023-08-25T15:10:27.590Z,27.41
2023-08-25T15:12:58.169Z,27.33
2023-08-25T15:15:26.685Z,27.06
2023-08-25T15:17:53.906Z,27.10
2023-08-25T15:20:21.195Z,27.24
2023-08-25T15:22:53.373Z,27.14
2023-08-25T15:25:21.848Z,27.26
2023-08-25T15:27:50.317Z,26.96
2023-08-25T15:30:18.393Z,26.68
2023-08-25T15:32:48.270Z,26.60
2023-08-25T15:35:16.185Z,26.86
2023-08-25T15:37:43.437Z,27.01
2023-08-25T15:40:12.477Z,27.14
2023-08-25T15:42:40.550Z,27.33
2023-08-25T15:45:13.333Z,27.24
2023-08-25T15:47:40.639Z,27.06
2023-08-25T15:50:08.931Z,26.67
2023-08-25T15:52:36.318Z,26.99
2023-08-25T15:55:03.632Z,27.01
2023-08-25T15:57:42.913Z,26.98
2023-08-25T16:00:16.253Z,27.06
2023-08-25T16:02:46.878Z,26.95
2023-08-25T16:05:13.940Z,26.94
2023-08-25T16:07:41.106Z,26.92
2023-08-25T16:10:10.193Z,26.75
2023-08-25T16:12:37.660Z,26.69
2023-08-25T16:15:06.006Z,26.60
2023-08-25T16:17:35.293Z,26.57
2023-08-25T16:20:02.367Z,26.77
2023-08-25T16:22:29.636Z,26.72
2023-08-25T16:24:56.923Z,26.82
2023-08-25T16:27:24.691Z,26.87
2023-08-25T16:29:51.871Z,26.72
2023-08-25T16:32:18.986Z,26.83
2023-08-25T16:34:52.307Z,26.65
2023-08-25T16:37:20.970Z,26.71
2023-08-25T16:39:48.138Z,26.56
2023-08-25T16:42:16.300Z,26.48
2023-08-25T16:44:44.981Z,26.50
2023-08-25T16:47:12.134Z,26.69
2023-08-25T16:49:39.230Z,26.70
2023-08-25T16:52:10.908Z,26.69
2023-08-25T16:54:38.081Z,26.79
2023-08-25T16:57:06.011Z,26.68
2023-08-25T16:59:33.602Z,26.48
2023-08-25T17:02:02.594Z,26.58
2023-08-25T17:04:33.280Z,26.67
2023-08-25T17:07:01.777Z,26.58
2023-08-25T17:09:31.058Z,26.53
2023-08-25T17:11:58.300Z,26.50
2023-08-25T17:14:26.089Z,26.40
2023-08-25T17:16:54.323Z,26.39
2023-08-25T17:19:21.814Z,26.40
2023-08-25T17:21:48.777Z,26.31
2023-08-25T17:24:16.268Z,26.34
2023-08-25T17:26:48.175Z,26.26
2023-08-25T17:29:15.446Z,26.31
2023-08-25T17:31:42.372Z,26.33
2023-08-25T17:34:12.101Z,26.33
2023-08-25T17:36:39.028Z,26.22
2023-08-25T17:39:06.168Z,26.24
2023-08-25T17:41:33.551Z,26.10
2023-08-25T17:44:01.739Z,26.12
2023-08-25T17:46:28.968Z,26.11
2023-08-25T17:48:55.916Z,26.05
2023-08-25T17:51:23.074Z,25.96
2023-08-25T17:53:50.122Z,25.99
2023-08-25T17:56:17.315Z,26.05
2023-08-25T17:58:45.244Z,26.10
2023-08-25T18:01:14.979Z,26.11
2023-08-25T18:03:42.578Z,26.03
2023-08-25T18:06:16.625Z,25.80
2023-08-25T18:08:43.865Z,25.76
2023-08-25T18:11:10.799Z,25.59
2023-08-25T18:13:37.867Z,25.47
2023-08-25T18:16:07.939Z,25.46
2023-08-25T18:18:36.255Z,25.42
2023-08-25T18:21:04.128Z,25.48
2023-08-25T18:23:32.603Z,25.63
2023-08-25T18:26:01.009Z,25.67
2023-08-25T18:28:28.878Z,25.67
2023-08-25T18:30:57.013Z,25.64
2023-08-25T18:33:24.033Z,25.57
2023-08-25T18:38:58.809Z,25.21
2023-08-25T18:41:28.503Z,25.16
2023-08-25T18:43:55.520Z,25.04
2023-08-25T18:46:22.731Z,24.85
2023-08-25T18:48:50.821Z,24.89
2023-08-25T18:51:23.298Z,24.88
2023-08-25T18:53:52.131Z,24.85
2023-08-25T18:56:22.488Z,24.83
2023-08-25T18:58:49.968Z,24.73
2023-08-25T19:01:17.700Z,24.63
2023-08-25T19:03:45.072Z,24.50
2023-08-25T19:06:12.254Z,24.27
2023-08-25T19:08:41.173Z,24.26
2023-08-25T19:11:08.110Z,24.30
2023-08-25T19:13:37.390Z,24.18
2023-08-25T19:16:05.429Z,23.94
2023-08-25T19:18:32.567Z,23.81
2023-08-25T19:21:04.087Z,23.83
2023-08-25T19:23:34.265Z,23.92
2023-08-25T19:26:09.426Z,23.96
2023-08-25T19:28:38.858Z,23.97
2023-08-25T19:31:09.503Z,23.93
2023-08-25T19:33:36.600Z,23.86
2023-08-25T19:36:03.739Z,23.87
2023-08-25T19:38:30.745Z,23.66
2023-08-25T19:41:04.354Z,23.59
2023-08-25T19:43:33.031Z,23.57
2023-08-25T19:46:00.225Z,23.45
2023-08-25T19:48:27.235Z,23.32
2023-08-25T19:50:55.404Z,23.29
2023-08-25T19:53:22.556Z,23.40
2023-08-25T19:55:49.999Z,23.32
2023-08-25T19:58:18.388Z,23.50
2023-08-25T20:00:51.704Z,23.51
2023-08-25T20:03:19.480Z,23.52
2023-08-25T20:06:00.611Z,23.65
2023-08-25T20:08:29.246Z,23.69
2023-08-25T20:10:59.634Z,23.66
2023-08-25T20:13:27.018Z,23.66
2023-08-25T20:15:56.996Z,23.64
2023-08-25T20:18:23.995Z,23.71
2023-08-25T20:20:50.977Z,23.72
2023-08-25T20:23:17.981Z,23.78
2023-08-25T20:25:46.190Z,23.66
2023-08-25T20:28:16.667Z,23.43
2023-08-25T20:30:45.908Z,23.44
2023-08-25T20:33:14.375Z,23.49
2023-08-25T20:35:44.276Z,23.49
2023-08-25T20:38:12.584Z,23.44
2023-08-25T20:40:43.057Z,23.31
2023-08-25T20:43:12.082Z,23.34
2023-08-25T20:45:39.163Z,23.50
2023-08-25T20:48:07.132Z,23.60
2023-08-25T20:50:35.748Z,23.64
2023-08-25T20:53:03.037Z,23.28
2023-08-25T20:55:29.958Z,23.15
2023-08-25T20:57:57.034Z,23.14
2023-08-25T21:00:24.174Z,23.15
2023-08-25T21:02:51.283Z,23.34
2023-08-25T21:05:18.456Z,23.34
2023-08-25T21:07:46.844Z,23.40
2023-08-25T21:10:13.827Z,23.18
2023-08-25T21:12:40.712Z,23.15
2023-08-25T21:15:09.013Z,23.10
2023-08-25T21:17:36.170Z,22.96
2023-08-25T21:20:03.562Z,22.75
2023-08-25T21:22:30.473Z,22.70
2023-08-25T21:24:59.173Z,22.60
2023-08-25T21:27:26.183Z,22.50
2023-08-25T21:29:53.123Z,22.63
2023-08-25T21:32:20.068Z,22.52
2023-08-25T21:34:47.113Z,22.45
2023-08-25T21:37:14.053Z,22.46
2023-08-25T21:39:41.148Z,22.35
2023-08-25T21:42:09.584Z,22.28
2023-08-25T21:44:37.236Z,22.17
2023-08-25T21:47:04.818Z,22.10
2023-08-25T21:49:31.760Z,22.09
2023-08-25T21:51:59.309Z,22.07
2023-08-25T21:54:26.595Z,22.10
2023-08-25T21:56:53.697Z,22.01
2023-08-25T21:59:22.092Z,22.02
2023-08-25T22:01:49.202Z,22.15
2023-08-25T22:04:16.210Z,22.28
2023-08-25T22:06:43.287Z,22.28
2023-08-25T22:09:11.764Z,22.37
2023-08-25T22:11:39.081Z,22.33
2023-08-25T22:14:06.776Z,22.23
2023-08-25T22:16:35.272Z,22.23
2023-08-25T22:19:02.484Z,22.26
2023-08-25T22:21:30.962Z,22.24
2023-08-25T22:23:58.088Z,22.23
2023-08-25T22:26:25.064Z,22.17
2023-08-25T22:29:01.316Z,22.13
2023-08-25T22:31:28.603Z,22.03
2023-08-25T22:36:35.487Z,21.96
2023-08-25T22:39:05.758Z,21.95
2023-08-25T22:41:32.778Z,21.97
2023-08-25T22:44:00.321Z,21.96
2023-08-25T22:46:27.603Z,21.97
2023-08-25T22:49:04.488Z,21.96
2023-08-25T22:51:31.692Z,22.00
2023-08-25T22:54:01.273Z,22.04
2023-08-25T22:56:29.389Z,22.01
2023-08-25T22:58:56.575Z,21.97
2023-08-25T23:01:24.655Z,21.95
2023-08-25T23:03:52.220Z,21.96
2023-08-25T23:06:20.662Z,21.99
2023-08-25T23:08:47.689Z,21.94
2023-08-25T23:11:14.822Z,21.96
2023-08-25T23:13:42.347Z,21.99
2023-08-25T23:16:12.129Z,22.01
2023-08-25T23:18:39.534Z,21.89
2023-08-25T23:21:07.267Z,21.98
2023-08-25T23:23:38.755Z,22.16
2023-08-25T23:26:05.907Z,22.32
2023-08-25T23:28:32.966Z,22.42
2023-08-25T23:31:00.544Z,22.50
2023-08-25T23:33:27.866Z,22.55
2023-08-25T23:35:55.084Z,22.61
2023-08-25T23:38:22.090Z,22.64
2023-08-25T23:40:56.374Z,22.66
2023-08-25T23:43:24.949Z,22.63
2023-08-25T23:45:56.093Z,22.70
2023-08-25T23:48:24.923Z,22.75
2023-08-25T23:50:53.033Z,22.75
2023-08-25T23:53:23.205Z,22.78
2023-08-25T23:55:50.342Z,22.81
2023-08-25T23:58:18.928Z,22.82
